createdAt,value
2018-05-13T00:00:44.376Z,20.30
2018-05-13T00:03:10.423Z,20.20
2018-05-13T00:05:36.429Z,20.20
2018-05-13T00:08:02.441Z,20.30
2018-05-13T00:10:28.398Z,20.40
2018-05-13T00:12:54.388Z,20.30
2018-05-13T00:15:21.284Z,20.20
2018-05-13T00:17:47.312Z,20.30
2018-05-13T00:20:13.333Z,20.10
2018-05-13T00:22:39.360Z,20.10
2018-05-13T00:25:05.849Z,20.10
2018-05-13T00:27:31.932Z,20.10
2018-05-13T00:29:57.904Z,20.00
2018-05-13T00:32:23.929Z,20.00
2018-05-13T00:34:49.999Z,20.00
2018-05-13T00:37:15.954Z,19.70
2018-05-13T00:39:41.980Z,19.50
2018-05-13T00:42:08.012Z,19.30
2018-05-13T00:44:34.028Z,19.30
2018-05-13T00:47:00.001Z,19.30
2018-05-13T00:49:26.038Z,19.10
2018-05-13T00:51:52.076Z,19.00
2018-05-13T00:54:31.303Z,19.00
2018-05-13T00:56:57.321Z,19.00
2018-05-13T00:59:23.329Z,19.00
2018-05-13T01:01:49.355Z,19.10
2018-05-13T01:04:15.333Z,19.10
2018-05-13T01:06:41.377Z,19.20
2018-05-13T01:09:07.420Z,19.20
2018-05-13T01:11:33.474Z,19.20
2018-05-13T01:13:59.476Z,19.30
2018-05-13T01:16:25.501Z,19.20
2018-05-13T01:18:51.702Z,19.20
2018-05-13T01:21:17.717Z,19.20
2018-05-13T01:23:43.870Z,19.00
2018-05-13T01:26:09.952Z,19.10
2018-05-13T01:28:35.939Z,19.10
2018-05-13T01:31:01.946Z,19.10
2018-05-13T01:33:28.009Z,19.10
2018-05-13T01:35:54.567Z,19.10
2018-05-13T01:38:21.561Z,19.10
2018-05-13T01:40:47.609Z,19.00
2018-05-13T01:43:13.560Z,19.00
2018-05-13T01:45:39.583Z,19.10
2018-05-13T01:48:05.661Z,19.20
2018-05-13T01:50:31.778Z,19.20
2018-05-13T01:52:57.757Z,19.30
2018-05-13T01:55:23.751Z,19.20
2018-05-13T01:57:49.713Z,19.20
2018-05-13T02:00:15.673Z,19.30
2018-05-13T02:02:41.733Z,19.30
2018-05-13T02:05:07.801Z,19.30
2018-05-13T02:07:33.892Z,19.20
2018-05-13T02:10:00.914Z,19.10
2018-05-13T02:12:26.922Z,19.00
2018-05-13T02:14:52.875Z,19.00
2018-05-13T02:17:18.825Z,18.90
2018-05-13T02:19:45.113Z,18.90
2018-05-13T02:22:11.085Z,18.80
2018-05-13T02:24:37.029Z,18.80
2018-05-13T02:27:03.017Z,18.80
2018-05-13T02:29:28.969Z,18.80
2018-05-13T02:31:54.924Z,18.80
2018-05-13T02:34:20.913Z,18.80
2018-05-13T02:36:46.943Z,18.80
2018-05-13T02:39:12.969Z,18.90
2018-05-13T02:41:38.965Z,18.80
2018-05-13T02:44:04.997Z,18.70
2018-05-13T02:46:31.085Z,18.60
2018-05-13T02:48:57.148Z,18.60
2018-05-13T02:51:23.166Z,18.50
2018-05-13T02:53:49.172Z,18.50
2018-05-13T02:56:15.185Z,18.40
2018-05-13T02:58:41.161Z,18.50
2018-05-13T03:01:07.157Z,18.40
2018-05-13T03:03:33.177Z,18.40
2018-05-13T03:05:59.230Z,18.40
2018-05-13T03:08:25.365Z,18.40
2018-05-13T03:10:51.401Z,18.40
2018-05-13T03:13:17.397Z,18.40
2018-05-13T03:15:43.412Z,18.40
2018-05-13T03:18:09.416Z,18.40
2018-05-13T03:20:42.366Z,18.30
2018-05-13T03:23:08.391Z,18.30
2018-05-13T03:25:34.381Z,18.30
2018-05-13T03:28:00.392Z,18.30
2018-05-13T03:30:26.332Z,18.40
2018-05-13T03:32:52.327Z,18.40
2018-05-13T03:35:18.326Z,18.40
2018-05-13T03:37:44.299Z,18.30
2018-05-13T03:40:10.341Z,18.30
2018-05-13T03:42:36.353Z,18.20
2018-05-13T03:45:02.372Z,18.20
2018-05-13T03:47:28.383Z,18.10
2018-05-13T03:49:54.414Z,18.20
2018-05-13T03:52:20.388Z,18.20
2018-05-13T03:54:46.388Z,18.30
2018-05-13T03:57:12.345Z,18.40
2018-05-13T03:59:38.337Z,18.50
2018-05-13T04:02:04.331Z,18.50
2018-05-13T04:04:30.315Z,18.50
2018-05-13T04:06:56.299Z,18.60
2018-05-13T04:09:34.478Z,18.60
2018-05-13T04:12:13.585Z,18.50
2018-05-13T04:14:51.851Z,18.40
2018-05-13T04:17:17.945Z,18.10
2018-05-13T04:19:43.995Z,17.90
2018-05-13T04:22:10.025Z,17.80
2018-05-13T04:24:36.089Z,17.80
2018-05-13T04:27:02.123Z,17.90
2018-05-13T04:29:28.119Z,17.90
2018-05-13T04:31:54.112Z,17.90
2018-05-13T04:34:20.058Z,18.00
2018-05-13T04:36:46.096Z,17.90
2018-05-13T04:39:12.185Z,17.90
2018-05-13T04:41:38.246Z,17.90
2018-05-13T04:44:04.260Z,17.90
2018-05-13T04:46:30.241Z,17.90
2018-05-13T04:48:56.240Z,17.90
2018-05-13T04:51:22.308Z,17.90
2018-05-13T04:53:48.281Z,17.90
2018-05-13T04:56:14.302Z,17.90
2018-05-13T04:58:40.314Z,17.90
2018-05-13T05:01:06.372Z,17.80
2018-05-13T05:03:32.289Z,18.00
2018-05-13T05:05:58.261Z,18.20
2018-05-13T05:08:25.028Z,18.30
2018-05-13T05:10:50.970Z,18.20
2018-05-13T05:13:16.960Z,18.40
2018-05-13T05:15:43.688Z,18.50
2018-05-13T05:18:09.688Z,18.50
2018-05-13T05:20:35.639Z,18.60
2018-05-13T05:23:01.564Z,18.60
2018-05-13T05:25:27.525Z,18.60
2018-05-13T05:27:53.546Z,18.70
2018-05-13T05:30:19.520Z,18.80
2018-05-13T05:32:45.602Z,18.90
2018-05-13T05:35:11.651Z,18.90
2018-05-13T05:37:37.875Z,19.00
2018-05-13T05:40:04.121Z,19.00
2018-05-13T05:42:30.203Z,19.10
2018-05-13T05:44:56.150Z,19.10
2018-05-13T05:47:22.353Z,19.10
2018-05-13T05:49:48.333Z,19.20
2018-05-13T05:52:14.426Z,19.10
2018-05-13T05:54:40.516Z,19.20
2018-05-13T05:57:06.508Z,19.20
2018-05-13T05:59:32.543Z,19.20
2018-05-13T06:01:58.559Z,19.30
2018-05-13T06:04:24.582Z,19.50
2018-05-13T06:06:51.187Z,19.40
2018-05-13T06:09:17.193Z,19.40
2018-05-13T06:11:44.160Z,19.30
2018-05-13T06:14:10.161Z,19.20
2018-05-13T06:16:36.100Z,19.20
2018-05-13T06:19:02.083Z,19.30
2018-05-13T06:21:28.089Z,19.60
2018-05-13T06:23:54.127Z,19.60
2018-05-13T06:26:20.135Z,19.70
2018-05-13T06:28:46.093Z,19.60
2018-05-13T06:31:12.038Z,19.80
2018-05-13T06:33:38.012Z,19.90
2018-05-13T06:36:04.069Z,19.90
2018-05-13T06:38:30.160Z,19.90
2018-05-13T06:40:56.171Z,20.00
2018-05-13T06:43:22.301Z,20.10
2018-05-13T06:45:48.280Z,20.10
2018-05-13T06:48:14.241Z,20.30
2018-05-13T06:50:40.268Z,20.40
2018-05-13T06:53:06.251Z,20.60
2018-05-13T06:55:32.243Z,20.80
2018-05-13T06:57:58.227Z,20.90
2018-05-13T07:00:25.094Z,20.90
2018-05-13T07:02:51.181Z,20.90
2018-05-13T07:05:17.999Z,20.80
2018-05-13T07:07:44.076Z,20.80
2018-05-13T07:10:10.043Z,20.70
2018-05-13T07:12:36.034Z,20.60
2018-05-13T07:15:01.986Z,20.60
2018-05-13T07:17:28.885Z,20.60
2018-05-13T07:19:54.943Z,20.70
2018-05-13T07:22:20.987Z,20.80
2018-05-13T07:24:47.047Z,20.90
2018-05-13T07:27:13.156Z,20.90
2018-05-13T07:29:40.436Z,20.90
2018-05-13T07:32:06.591Z,20.90
2018-05-13T07:34:32.669Z,21.00
2018-05-13T07:36:59.517Z,20.90
2018-05-13T07:39:25.662Z,21.00
2018-05-13T07:41:51.760Z,21.10
2018-05-13T07:44:17.845Z,21.20
2018-05-13T07:46:43.950Z,21.20
2018-05-13T07:49:10.767Z,21.20
2018-05-13T07:51:37.717Z,21.30
2018-05-13T07:54:06.630Z,21.30
2018-05-13T07:56:33.380Z,21.20
2018-05-13T08:15:44.993Z,21.00
2018-05-13T08:18:11.064Z,21.00
2018-05-13T08:20:37.296Z,21.10
2018-05-13T08:23:03.514Z,21.20
2018-05-13T08:25:30.685Z,21.30
2018-05-13T08:27:56.669Z,21.40
2018-05-13T08:30:22.737Z,21.40
2018-05-13T08:32:48.728Z,21.40
2018-05-13T08:35:14.753Z,21.30
2018-05-13T08:37:40.777Z,21.20
2018-05-13T08:40:06.876Z,21.10
2018-05-13T08:42:32.928Z,21.10
2018-05-13T08:44:58.947Z,21.10
2018-05-13T08:47:25.026Z,21.20
2018-05-13T08:49:51.032Z,21.30
2018-05-13T08:52:17.142Z,21.20
2018-05-13T08:54:43.104Z,21.30
2018-05-13T08:57:09.307Z,21.40
2018-05-13T08:59:37.402Z,21.70
2018-05-13T09:02:04.167Z,21.90
2018-05-13T09:04:30.398Z,22.00
2018-05-13T09:06:56.392Z,22.10
2018-05-13T09:09:22.721Z,22.20
2018-05-13T09:11:49.160Z,22.40
2018-05-13T09:14:15.336Z,22.60
2018-05-13T09:16:41.624Z,22.50
2018-05-13T09:19:08.102Z,22.30
2018-05-13T09:21:34.188Z,22.00
2018-05-13T09:24:00.202Z,22.00
2018-05-13T09:26:26.296Z,21.90
2018-05-13T09:28:52.418Z,21.90
2018-05-13T09:31:18.417Z,21.90
2018-05-13T09:33:45.052Z,22.10
2018-05-13T09:36:11.065Z,22.30
2018-05-13T09:38:37.839Z,22.20
2018-05-13T09:41:03.825Z,22.20
2018-05-13T09:43:30.148Z,22.20
2018-05-13T09:45:56.299Z,22.30
2018-05-13T09:48:22.424Z,22.50
2018-05-13T09:50:48.405Z,22.30
2018-05-13T09:53:15.322Z,22.40
2018-05-13T09:55:41.338Z,22.40
2018-05-13T09:58:07.316Z,22.30
2018-05-13T10:00:33.387Z,22.20
2018-05-13T10:02:59.704Z,22.00
2018-05-13T10:05:25.820Z,22.10
2018-05-13T10:07:52.114Z,22.20
2018-05-13T10:10:18.105Z,22.40
2018-05-13T10:12:44.117Z,22.50
2018-05-13T10:15:15.705Z,22.60
2018-05-13T10:17:41.706Z,22.70
2018-05-13T10:20:07.668Z,22.60
2018-05-13T10:22:34.303Z,22.70
2018-05-13T10:25:02.042Z,22.90
2018-05-13T10:27:28.137Z,23.00
2018-05-13T10:29:54.090Z,22.90
2018-05-13T10:32:20.144Z,22.90
2018-05-13T10:34:46.221Z,22.90
2018-05-13T10:37:12.236Z,23.10
2018-05-13T10:39:38.254Z,23.30
2018-05-13T10:42:04.403Z,23.50
2018-05-13T10:44:30.503Z,23.60
2018-05-13T10:46:56.914Z,23.40
2018-05-13T10:49:23.023Z,23.50
2018-05-13T10:51:49.106Z,23.70
2018-05-13T10:54:15.126Z,23.80
2018-05-13T10:56:41.243Z,23.80
2018-05-13T10:59:07.850Z,24.00
2018-05-13T11:01:33.958Z,23.80
2018-05-13T11:04:00.077Z,23.50
2018-05-13T11:06:26.976Z,23.50
2018-05-13T11:08:53.064Z,23.70
2018-05-13T11:11:19.129Z,23.90
2018-05-13T11:13:45.160Z,24.20
2018-05-13T11:16:11.167Z,24.50
2018-05-13T11:18:38.047Z,24.50
2018-05-13T11:21:04.093Z,24.40
2018-05-13T11:23:30.119Z,24.40
2018-05-13T11:25:56.323Z,24.30
2018-05-13T11:28:24.722Z,24.00
2018-05-13T11:30:50.753Z,23.90
2018-05-13T11:33:17.565Z,23.50
2018-05-13T11:35:43.589Z,23.50
2018-05-13T11:38:09.741Z,23.50
2018-05-13T11:40:35.798Z,23.50
2018-05-13T11:43:01.837Z,23.20
2018-05-13T11:45:27.865Z,23.20
2018-05-13T11:47:53.878Z,23.00
2018-05-13T11:50:20.017Z,22.80
2018-05-13T11:52:46.053Z,22.70
2018-05-13T11:55:12.676Z,22.70
2018-05-13T11:57:39.038Z,22.90
2018-05-13T12:00:05.038Z,23.10
2018-05-13T12:02:31.255Z,23.00
2018-05-13T12:04:57.298Z,23.10
2018-05-13T12:07:23.387Z,23.10
2018-05-13T12:09:49.515Z,23.20
2018-05-13T12:12:15.675Z,23.30
2018-05-13T12:14:41.770Z,23.40
2018-05-13T12:17:07.851Z,23.60
2018-05-13T12:19:33.953Z,23.60
2018-05-13T12:22:00.052Z,23.60
2018-05-13T12:24:26.066Z,23.90
2018-05-13T12:26:52.220Z,24.20
2018-05-13T12:29:18.249Z,24.40
2018-05-13T12:31:44.311Z,24.50
2018-05-13T12:34:11.315Z,24.50
2018-05-13T12:36:37.400Z,24.30
2018-05-13T12:39:03.448Z,24.40
2018-05-13T12:41:29.502Z,24.20
2018-05-13T12:43:56.295Z,24.10
2018-05-13T12:46:23.791Z,24.00
2018-05-13T12:48:49.941Z,23.90
2018-05-13T12:51:15.915Z,24.10
2018-05-13T12:53:42.855Z,24.30
2018-05-13T12:56:08.902Z,24.70
2018-05-13T12:58:35.292Z,24.90
2018-05-13T13:01:01.433Z,24.80
2018-05-13T13:03:27.522Z,24.60
2018-05-13T13:05:53.638Z,24.80
2018-05-13T13:08:19.680Z,25.00
2018-05-13T13:10:45.909Z,25.30
2018-05-13T13:13:12.707Z,25.30
2018-05-13T13:15:38.773Z,25.40
2018-05-13T13:18:04.859Z,25.50
2018-05-13T13:20:30.904Z,25.70
2018-05-13T13:22:56.932Z,25.80
2018-05-13T13:25:23.621Z,25.10
2018-05-13T13:27:49.617Z,24.80
2018-05-13T13:30:15.719Z,24.70
2018-05-13T13:32:41.788Z,24.70
2018-05-13T13:35:07.881Z,25.00
2018-05-13T13:37:34.094Z,25.00
2018-05-13T13:40:01.551Z,25.10
2018-05-13T13:42:27.789Z,25.50
2018-05-13T13:44:54.386Z,25.70
2018-05-13T13:47:21.226Z,25.80
2018-05-13T13:49:48.165Z,26.40
2018-05-13T13:52:15.906Z,26.30
2018-05-13T13:54:42.102Z,26.40
2018-05-13T13:57:08.267Z,26.50
2018-05-13T13:59:34.438Z,26.50
2018-05-13T14:02:01.429Z,26.20
2018-05-13T14:04:28.500Z,26.00
2018-05-13T14:06:54.582Z,25.40
2018-05-13T14:09:22.909Z,25.20
2018-05-13T14:11:49.464Z,25.10
2018-05-13T14:14:16.391Z,24.80
2018-05-13T14:16:42.401Z,24.60
2018-05-13T14:19:08.493Z,24.50
2018-05-13T14:21:36.461Z,24.70
2018-05-13T14:24:03.052Z,24.60
2018-05-13T14:26:29.095Z,24.50
2018-05-13T14:28:55.945Z,24.20
2018-05-13T14:31:22.650Z,23.80
2018-05-13T14:33:49.479Z,23.80
2018-05-13T14:36:15.521Z,23.60
2018-05-13T14:38:41.538Z,23.30
2018-05-13T14:41:07.741Z,23.10
2018-05-13T14:43:36.719Z,23.30
2018-05-13T14:46:02.961Z,23.00
2018-05-13T14:48:30.268Z,22.90
2018-05-13T14:50:56.321Z,22.80
2018-05-13T14:53:23.338Z,22.60
2018-05-13T14:55:49.733Z,22.60
2018-05-13T14:58:16.133Z,22.50
2018-05-13T15:00:42.273Z,22.30
2018-05-13T15:03:08.926Z,22.30
2018-05-13T15:05:35.990Z,21.90
2018-05-13T15:08:02.460Z,21.90
2018-05-13T15:10:28.541Z,21.80
2018-05-13T15:12:54.535Z,21.60
2018-05-13T15:15:21.000Z,21.60
2018-05-13T15:17:47.495Z,21.60
2018-05-13T15:20:13.694Z,21.50
2018-05-13T15:22:39.980Z,21.40
2018-05-13T15:25:07.346Z,21.40
2018-05-13T15:27:34.395Z,21.30
2018-05-13T15:30:00.635Z,21.30
2018-05-13T15:32:27.303Z,21.20
2018-05-13T15:34:53.485Z,21.10
2018-05-13T15:37:26.434Z,21.20
2018-05-13T15:39:53.271Z,21.10
2018-05-13T15:42:19.646Z,21.20
2018-05-13T15:44:45.753Z,21.20
2018-05-13T15:47:11.796Z,21.00
2018-05-13T15:49:38.229Z,20.70
2018-05-13T15:52:05.246Z,20.70
2018-05-13T15:54:31.387Z,20.80
2018-05-13T15:56:57.563Z,20.90
2018-05-13T15:59:23.693Z,21.00
2018-05-13T16:01:49.872Z,21.00
2018-05-13T16:04:16.007Z,21.00
2018-05-13T16:06:42.553Z,21.10
2018-05-13T16:09:09.682Z,21.20
2018-05-13T16:11:36.298Z,21.40
2018-05-13T16:14:02.769Z,21.80
2018-05-13T16:16:31.760Z,22.10
2018-05-13T16:18:58.865Z,22.30
2018-05-13T16:21:27.307Z,22.50
2018-05-13T16:23:54.137Z,22.50
2018-05-13T16:26:20.981Z,22.60
2018-05-13T16:28:48.518Z,22.60
2018-05-13T16:31:16.556Z,22.60
2018-05-13T16:33:43.179Z,22.60
2018-05-13T16:36:10.995Z,22.60
2018-05-13T16:38:37.835Z,22.50
2018-05-13T16:41:05.366Z,22.30
2018-05-13T16:43:31.986Z,22.20
2018-05-13T16:46:00.842Z,22.10
2018-05-13T16:48:27.469Z,21.90
2018-05-13T16:50:54.356Z,21.70
2018-05-13T16:53:21.241Z,21.70
2018-05-13T16:55:48.098Z,21.60
2018-05-13T16:58:14.300Z,21.50
2018-05-13T17:00:40.854Z,21.40
2018-05-13T17:03:07.428Z,21.40
2018-05-13T17:05:33.497Z,21.40
2018-05-13T17:07:59.661Z,21.40
2018-05-13T17:10:25.820Z,21.30
2018-05-13T17:12:53.018Z,21.20
2018-05-13T17:15:19.142Z,21.10
2018-05-13T17:17:45.277Z,21.00
2018-05-13T17:20:11.346Z,21.10
2018-05-13T17:22:37.403Z,21.10
2018-05-13T17:25:04.003Z,21.00
2018-05-13T17:27:31.656Z,21.10
2018-05-13T17:29:57.775Z,21.00
2018-05-13T17:32:23.816Z,21.00
2018-05-13T17:34:50.165Z,20.90
2018-05-13T17:37:16.324Z,20.70
2018-05-13T17:39:43.221Z,20.60
2018-05-13T17:42:09.255Z,20.50
2018-05-13T17:44:35.445Z,20.40
2018-05-13T17:47:01.612Z,20.40
2018-05-13T17:49:27.727Z,20.50
2018-05-13T17:51:53.845Z,20.40
2018-05-13T17:54:19.918Z,20.40
2018-05-13T17:56:45.987Z,20.40
2018-05-13T17:59:12.147Z,20.40
2018-05-13T18:01:38.300Z,20.30
2018-05-13T18:04:04.325Z,20.20
2018-05-13T18:06:30.433Z,20.20
2018-05-13T18:08:56.707Z,20.20
2018-05-13T18:11:22.738Z,20.30
2018-05-13T18:13:48.786Z,20.30
2018-05-13T18:16:14.785Z,20.10
2018-05-13T18:18:40.832Z,19.90
2018-05-13T18:21:07.835Z,19.80
2018-05-13T18:23:33.926Z,19.70
2018-05-13T18:25:59.995Z,19.70
2018-05-13T18:28:26.361Z,19.80
2018-05-13T18:30:53.429Z,20.00
2018-05-13T18:33:20.394Z,20.00
2018-05-13T18:35:47.646Z,20.00
2018-05-13T18:38:13.872Z,19.70
2018-05-13T18:40:40.692Z,19.80
2018-05-13T18:43:07.720Z,19.80
2018-05-13T18:45:34.668Z,19.70
2018-05-13T18:48:00.783Z,19.80
2018-05-13T18:50:26.834Z,19.80
2018-05-13T18:52:52.888Z,19.90
2018-05-13T18:55:19.329Z,19.90
2018-05-13T18:57:45.421Z,19.70
2018-05-13T19:00:11.640Z,19.50
2018-05-13T19:02:37.967Z,19.20
2018-05-13T19:05:04.251Z,19.20
2018-05-13T19:07:31.949Z,19.10
2018-05-13T19:09:59.815Z,19.00
2018-05-13T19:12:27.196Z,18.90
2018-05-13T19:14:56.277Z,19.00
2018-05-13T19:17:23.469Z,19.00
2018-05-13T19:19:49.765Z,19.00
2018-05-13T19:22:18.039Z,19.10
2018-05-13T19:24:44.139Z,18.90
2018-05-13T19:27:10.713Z,18.90
2018-05-13T19:29:36.811Z,18.90
2018-05-13T19:32:03.132Z,18.70
2018-05-13T19:34:29.798Z,18.60
2018-05-13T19:36:56.014Z,18.60
2018-05-13T19:39:22.007Z,18.60
2018-05-13T19:41:48.100Z,18.50
2018-05-13T19:44:14.469Z,18.40
2018-05-13T19:46:41.546Z,18.40
2018-05-13T19:49:08.840Z,18.50
2018-05-13T19:51:36.952Z,18.50
2018-05-13T19:54:03.420Z,18.40
2018-05-13T19:56:29.752Z,18.40
2018-05-13T19:58:56.303Z,18.50
2018-05-13T20:01:23.571Z,18.60
2018-05-13T20:03:50.023Z,18.60
2018-05-13T20:06:16.606Z,18.50
2018-05-13T20:08:42.621Z,18.40
2018-05-13T20:11:09.348Z,18.60
2018-05-13T20:13:35.458Z,18.40
2018-05-13T20:16:01.477Z,18.30
2018-05-13T20:18:27.684Z,18.30
2018-05-13T20:20:54.204Z,18.10
2018-05-13T20:23:26.160Z,18.00
2018-05-13T20:25:52.433Z,17.90
2018-05-13T20:42:33.419Z,17.70
2018-05-13T20:45:00.647Z,17.60
2018-05-13T20:47:28.282Z,17.50
2018-05-13T20:49:55.265Z,17.40
2018-05-13T20:52:21.819Z,17.40
2018-05-13T20:54:48.016Z,17.20
2018-05-13T20:57:14.206Z,17.10
2018-05-13T20:59:41.147Z,17.30
2018-05-13T21:02:07.228Z,17.50
2018-05-13T21:04:33.271Z,17.50
2018-05-13T21:06:59.390Z,17.50
2018-05-13T21:09:25.610Z,17.60
2018-05-13T21:28:37.400Z,16.80
2018-05-13T21:31:03.500Z,16.90
2018-05-13T21:33:29.584Z,17.00
2018-05-13T21:35:57.254Z,17.10
2018-05-13T21:38:23.450Z,17.00
2018-05-13T21:40:50.612Z,17.00
2018-05-13T21:43:16.635Z,16.90
2018-05-13T21:45:43.832Z,16.90
2018-05-13T21:48:11.097Z,16.90
2018-05-13T21:50:39.549Z,16.80
2018-05-13T21:53:06.033Z,16.70
2018-05-13T21:55:32.047Z,16.70
2018-05-13T21:57:58.356Z,16.90
2018-05-13T22:00:24.723Z,16.80
2018-05-13T22:02:51.427Z,16.70
2018-05-13T22:05:17.430Z,16.70
2018-05-13T22:07:43.868Z,16.60
2018-05-13T22:10:10.575Z,16.80
2018-05-13T22:12:36.592Z,16.90
2018-05-13T22:15:03.143Z,17.00
2018-05-13T22:17:30.036Z,17.10
2018-05-13T22:19:56.111Z,17.20
2018-05-13T22:22:22.086Z,17.20
2018-05-13T22:24:48.182Z,17.20
2018-05-13T22:27:14.261Z,17.20
2018-05-13T22:29:40.346Z,17.40
2018-05-13T22:32:08.944Z,17.40
2018-05-13T22:34:36.687Z,17.20
2018-05-13T22:37:04.775Z,17.00
2018-05-13T22:39:32.092Z,17.00
2018-05-13T22:56:08.250Z,17.30
2018-05-13T23:15:27.020Z,17.10
2018-05-13T23:17:53.120Z,17.20
2018-05-13T23:20:19.437Z,17.10
2018-05-13T23:22:45.434Z,17.10
2018-05-13T23:25:11.779Z,17.00
2018-05-13T23:27:37.949Z,17.10
2018-05-13T23:30:04.850Z,17.10
2018-05-13T23:32:31.128Z,17.20
2018-05-13T23:34:57.115Z,17.20
2018-05-13T23:37:23.370Z,17.10
2018-05-13T23:39:53.406Z,17.00
2018-05-13T23:42:20.307Z,17.00
2018-05-13T23:44:47.224Z,16.90
2018-05-13T23:47:13.456Z,16.80
2018-05-13T23:49:39.632Z,16.80
2018-05-13T23:52:05.906Z,16.70
2018-05-13T23:54:31.959Z,16.70
2018-05-13T23:56:58.041Z,16.80
2018-05-13T23:59:25.001Z,16.80
